Time;durP1;ratioP1;P1;durP2;ratioP2;P2;SDS_P1;SDS_P2;PMS_P1;PMS_P2;Temp;Humidity;BMP_temperature;BMP_pressure;BME280_temperature;BME280_humidity;BME280_pressure;Samples;Min_cycle;Max_cycle;Signal;HPM_P1;HPM_P2
2021/07/28 00:00:37;;;;;;;5.25;3.47;;;;;;;14.41;84.73;90753.25;4953701;29;20027;-86
2021/07/28 00:03:11;;;;;;;4.38;3.63;;;;;;;14.16;85.65;90740.56;4969816;28;20034;-86
2021/07/28 00:05:44;;;;;;;5.88;4.00;;;;;;;14.24;84.76;90747.41;4953470;28;20404;-86
2021/07/28 00:08:24;;;;;;;6.45;3.95;;;;;;;14.16;85.63;90766.75;4969586;28;20023;-86
2021/07/28 00:11:04;;;;;;;5.82;3.70;;;;;;;14.03;85.03;90768.84;4953408;29;20132;-86
2021/07/28 00:13:43;;;;;;;6.97;3.92;;;;;;;14.06;85.67;90760.28;4969512;28;20031;-86
2021/07/28 00:16:19;;;;;;;7.13;3.72;;;;;;;14.01;85.29;90755.31;4969533;28;20045;-85
2021/07/28 00:24:49;;;;;;;4.80;3.70;;;;;;;14.04;85.69;90770.34;4967236;28;20042;-85
2021/07/28 00:27:31;;;;;;;7.07;3.93;;;;;;;13.93;86.75;90745.09;4968296;28;20408;-86
2021/07/28 00:30:13;;;;;;;5.45;3.83;;;;;;;13.91;87.25;90742.81;4953066;29;20364;-87
2021/07/28 00:32:42;;;;;;;5.55;4.25;;;;;;;13.83;88.08;90733.34;4968363;28;20024;-86
2021/07/28 00:35:18;;;;;;;5.65;4.00;;;;;;;13.92;87.42;90738.31;4968774;28;20090;-87
2021/07/28 00:38:03;;;;;;;6.53;4.68;;;;;;;13.77;87.85;90739.97;4953133;29;20031;-86
2021/07/28 00:40:40;;;;;;;9.13;4.40;;;;;;;13.76;87.65;90734.00;4953245;28;20114;-86
2021/07/28 00:43:18;;;;;;;6.05;4.45;;;;;;;13.74;87.12;90725.72;4952795;29;20030;-86
2021/07/28 00:45:55;;;;;;;5.18;4.25;;;;;;;13.68;87.47;90723.78;4937425;29;20453;-86
2021/07/28 00:48:35;;;;;;;5.30;4.40;;;;;;;13.69;87.49;90718.16;4937101;29;20034;-86
2021/07/28 00:51:12;;;;;;;6.05;4.40;;;;;;;13.67;87.30;90725.59;4968607;28;20051;-87
2021/07/28 00:53:52;;;;;;;5.30;4.43;;;;;;;13.48;88.25;90717.84;4952816;29;20435;-88
2021/07/28 00:56:25;;;;;;;6.90;4.40;;;;;;;13.48;87.72;90721.22;4988521;23;20111;-89
2021/07/28 00:59:10;;;;;;;7.35;4.68;;;;;;;13.48;87.73;90717.84;5026513;28;20029;-89
2021/07/28 01:01:52;;;;;;;6.35;4.63;;;;;;;13.42;87.54;90719.97;5011046;28;20022;-88
2021/07/28 01:04:28;;;;;;;8.05;5.03;;;;;;;13.48;86.39;90717.84;4994736;28;20126;-87
2021/07/28 01:07:07;;;;;;;6.65;4.50;;;;;;;13.46;86.53;90714.81;5015250;28;20026;-85
2021/07/28 01:09:44;;;;;;;7.18;4.65;;;;;;;13.39;86.69;90710.97;4976207;28;20105;-86
2021/07/28 01:12:23;;;;;;;7.95;4.82;;;;;;;13.39;86.71;90710.19;4990958;28;20026;-86
2021/07/28 01:15:02;;;;;;;6.70;4.70;;;;;;;13.42;86.32;90712.13;4975121;28;20498;-86
2021/07/28 01:17:40;;;;;;;7.25;4.72;;;;;;;13.26;86.73;90699.16;4990947;28;20030;-85
2021/07/28 01:20:17;;;;;;;6.68;4.65;;;;;;;13.19;86.55;90704.25;4991761;28;20402;-87
2021/07/28 01:22:58;;;;;;;6.03;4.80;;;;;;;13.28;84.74;90704.03;4975678;28;20060;-84
2021/07/28 01:25:34;;;;;;;7.57;4.78;;;;;;;13.22;83.91;90695.72;4975543;28;20015;-86
2021/07/28 01:28:12;;;;;;;9.38;4.68;;;;;;;13.15;85.48;90696.34;4974774;28;20031;-86
2021/07/28 01:30:51;;;;;;;7.70;4.93;;;;;;;13.00;85.91;90699.81;4974769;28;20088;-85
2021/07/28 01:33:26;;;;;;;7.15;4.40;;;;;;;13.05;85.19;90696.16;5010262;28;20049;-89
2021/07/28 01:35:59;;;;;;;6.97;4.43;;;;;;;12.92;86.39;90704.16;5017854;28;20019;-89
2021/07/28 01:38:40;;;;;;;7.63;4.83;;;;;;;13.12;83.92;90696.28;4994908;28;20113;-86
2021/07/28 01:41:20;;;;;;;5.78;4.47;;;;;;;12.91;84.78;90704.50;4990545;28;20042;-85
2021/07/28 01:44:00;;;;;;;6.90;5.03;;;;;;;12.75;86.33;90699.34;4991836;28;20082;-87
2021/07/28 01:46:34;;;;;;;7.28;4.75;;;;;;;12.74;84.63;90697.09;4975331;28;20034;-85
2021/07/28 01:49:23;;;;;;;9.13;4.43;;;;;;;12.67;86.35;90702.94;4990691;28;20030;-85
2021/07/28 01:51:56;;;;;;;19.88;6.20;;;;;;;12.70;86.43;90691.06;4990549;28;20030;-89
2021/07/28 01:54:36;;;;;;;9.20;4.78;;;;;;;12.66;85.82;90688.38;4974380;28;20101;-88
2021/07/28 01:57:16;;;;;;;7.68;4.93;;;;;;;12.58;85.73;90689.31;4990491;28;20035;-88
2021/07/28 02:00:02;;;;;;;7.40;4.60;;;;;;;12.57;86.18;90695.66;4990401;28;20430;-88
2021/07/28 02:02:41;;;;;;;7.07;4.90;;;;;;;12.53;86.37;90687.00;4990675;28;20491;-85
2021/07/28 02:05:18;;;;;;;8.13;4.70;;;;;;;12.51;86.88;90694.41;4990663;28;20030;-85
2021/07/28 02:07:50;;;;;;;7.40;5.10;;;;;;;12.49;86.96;90684.31;4992388;28;20509;-86
2021/07/28 02:10:23;;;;;;;8.27;4.50;;;;;;;12.49;87.52;90678.34;4977971;28;20022;-85
2021/07/28 02:13:05;;;;;;;8.77;4.97;;;;;;;12.50;88.36;90682.47;4995338;28;20026;-85
2021/07/28 02:15:47;;;;;;;7.25;4.50;;;;;;;12.41;87.61;90669.63;4979533;28;20108;-86
2021/07/28 02:18:24;;;;;;;8.63;4.70;;;;;;;12.40;87.49;90661.03;4995253;28;20117;-86
2021/07/28 02:21:01;;;;;;;6.65;4.80;;;;;;;12.31;88.30;90664.94;4993941;28;20026;-86
2021/07/28 02:23:34;;;;;;;7.60;5.10;;;;;;;12.28;88.74;90670.84;4994081;28;20027;-86
2021/07/28 02:26:14;;;;;;;9.60;5.32;;;;;;;12.28;89.14;90665.63;4978180;28;20026;-86
2021/07/28 02:28:51;;;;;;;8.15;4.80;;;;;;;12.40;88.57;90665.47;4993983;28;20054;-85
2021/07/28 02:31:29;;;;;;;10.55;5.60;;;;;;;12.39;88.28;90661.34;4978005;28;20027;-85
2021/07/28 02:34:04;;;;;;;7.97;5.07;;;;;;;12.33;88.67;90652.25;4978614;28;20027;-85
2021/07/28 02:36:44;;;;;;;7.50;4.93;;;;;;;12.31;88.63;90650.00;4995152;28;20073;-86
2021/07/28 02:39:18;;;;;;;9.15;5.43;;;;;;;12.29;88.80;90639.13;4977962;28;20065;-85
2021/07/28 02:41:57;;;;;;;7.80;5.13;;;;;;;12.22;88.96;90641.59;4994986;28;20018;-85
2021/07/28 02:44:36;;;;;;;6.80;4.85;;;;;;;12.13;89.17;90646.28;4993981;28;20026;-85
2021/07/28 02:47:18;;;;;;;8.15;4.80;;;;;;;12.08;89.37;90662.22;4993706;28;20034;-85
2021/07/28 02:50:00;;;;;;;7.32;5.10;;;;;;;12.31;87.96;90655.22;4994514;28;20027;-85
2021/07/28 02:52:36;;;;;;;9.07;4.93;;;;;;;12.28;88.36;90652.56;4994033;28;20026;-86
2021/07/28 02:55:18;;;;;;;8.65;4.95;;;;;;;12.13;88.82;90664.59;4993499;28;20030;-86
2021/07/28 02:57:55;;;;;;;8.25;5.55;;;;;;;12.09;89.35;90668.97;4993463;28;20038;-85
2021/07/28 03:00:33;;;;;;;7.10;5.10;;;;;;;12.03;89.30;90670.34;4992266;28;20057;-86
2021/07/28 03:03:12;;;;;;;10.52;5.32;;;;;;;12.02;89.27;90668.84;4992885;28;20110;-86
2021/07/28 03:05:44;;;;;;;7.18;4.80;;;;;;;12.07;89.11;90665.94;4994483;28;20037;-86
2021/07/28 03:08:25;;;;;;;6.85;5.03;;;;;;;12.10;89.24;90673.84;4994865;28;20351;-85
2021/07/28 03:11:06;;;;;;;5.10;4.40;;;;;;;12.05;89.06;90670.75;4994134;28;20026;-85
2021/07/28 03:13:45;;;;;;;8.88;4.65;;;;;;;12.03;88.82;90670.34;4994519;28;20027;-86
2021/07/28 03:16:23;;;;;;;8.02;4.80;;;;;;;12.06;88.75;90656.59;4994285;28;20096;-86
2021/07/28 03:18:58;;;;;;;8.18;4.72;;;;;;;12.09;88.78;90668.97;4992871;28;20073;-86
2021/07/28 03:21:32;;;;;;;7.28;4.88;;;;;;;12.06;88.53;90669.66;4993955;28;20022;-86
2021/07/28 03:24:02;;;;;;;5.78;4.40;;;;;;;12.08;88.86;90662.97;4994383;28;20039;-86
2021/07/28 03:26:42;;;;;;;8.63;4.50;;;;;;;12.01;88.56;90656.84;4993938;28;20030;-86
2021/07/28 03:29:14;;;;;;;6.38;4.53;;;;;;;11.94;89.05;90660.84;4993987;28;20086;-86
2021/07/28 03:31:54;;;;;;;6.07;4.15;;;;;;;12.01;85.48;90677.75;4994360;28;20025;-85
2021/07/28 03:34:38;;;;;;;9.38;4.20;;;;;;;12.02;87.02;90676.66;4993832;28;20033;-85
2021/07/28 03:37:23;;;;;;;8.07;4.43;;;;;;;12.01;87.87;90667.31;4994098;28;20026;-85
2021/07/28 03:40:02;;;;;;;;;;;;;;;11.96;88.57;90657.88;4994033;28;20433;-87
2021/07/28 03:42:41;;;;;;;7.13;4.28;;;;;;;11.91;88.27;90661.53;4992713;28;20469;-86
2021/07/28 03:45:18;;;;;;;7.35;4.25;;;;;;;11.86;88.83;90651.34;4992790;28;20482;-86
2021/07/28 03:47:55;;;;;;;12.57;4.63;;;;;;;11.88;87.80;90657.00;4993831;28;20029;-86
2021/07/28 03:50:24;;;;;;;8.02;4.63;;;;;;;11.81;87.27;90658.66;4993522;28;20125;-86
2021/07/28 03:53:08;;;;;;;6.68;4.25;;;;;;;11.94;82.97;90658.25;4993236;28;20046;-86
2021/07/28 03:55:46;;;;;;;5.82;4.05;;;;;;;12.01;83.73;90667.31;4992404;28;20029;-88
2021/07/28 03:58:28;;;;;;;7.78;4.07;;;;;;;12.02;85.69;90661.00;4993547;28;20049;-88
2021/07/28 04:01:08;;;;;;;6.60;4.25;;;;;;;11.94;87.96;90663.47;4993131;28;20030;-88
2021/07/28 04:03:44;;;;;;;9.65;4.47;;;;;;;11.82;87.83;90666.16;4993527;28;20029;-88
2021/07/28 04:06:28;;;;;;;9.30;5.05;;;;;;;11.84;87.67;90677.06;4993177;28;20121;-88
2021/07/28 04:09:07;;;;;;;6.95;4.30;;;;;;;11.78;88.31;90683.59;4993355;28;20026;-88
2021/07/28 04:11:51;;;;;;;7.63;4.40;;;;;;;11.82;88.41;90684.44;4992994;28;20030;-88
2021/07/28 04:14:28;;;;;;;5.95;4.35;;;;;;;11.78;88.31;90685.47;4993409;28;20026;-88
2021/07/28 04:17:05;;;;;;;7.03;4.80;;;;;;;11.82;88.70;90694.13;4993469;28;20030;-88
2021/07/28 04:19:53;;;;;;;6.90;4.53;;;;;;;11.86;88.60;90682.66;4992971;28;20025;-88
2021/07/28 04:22:21;;;;;;;7.40;4.15;;;;;;;11.88;88.75;90671.91;4993178;28;20101;-88
2021/07/28 04:25:01;;;;;;;4.88;3.78;;;;;;;11.95;88.86;90670.19;4994182;28;20022;-88
2021/07/28 04:27:41;;;;;;;7.20;4.28;;;;;;;11.87;87.40;90672.97;4993113;28;20043;-88
2021/07/28 04:30:16;;;;;;;8.13;4.65;;;;;;;11.70;88.99;90674.09;4992482;28;20029;-88
2021/07/28 04:32:55;;;;;;;5.57;3.90;;;;;;;11.79;87.40;90661.59;4992972;28;20030;-88
2021/07/28 04:35:34;;;;;;;7.93;3.80;;;;;;;11.81;87.00;90664.66;4993182;28;20077;-88
2021/07/28 04:38:13;;;;;;;8.48;3.67;;;;;;;11.89;85.27;90666.34;4993484;28;20054;-89
2021/07/28 04:40:48;;;;;;;5.07;3.55;;;;;;;11.83;84.99;90657.22;4992446;28;20046;-87
2021/07/28 04:43:25;;;;;;;5.75;4.00;;;;;;;11.74;85.57;90654.06;4992971;28;20030;-89
2021/07/28 04:46:05;;;;;;;6.63;3.75;;;;;;;11.81;85.96;90664.66;4993622;28;20033;-88
2021/07/28 04:48:38;;;;;;;8.13;3.70;;;;;;;11.78;84.44;90659.34;4994490;28;20509;-86
2021/07/28 04:51:16;;;;;;;5.45;3.03;;;;;;;11.77;84.04;90645.53;4991685;28;20022;-87
2021/07/28 04:53:56;;;;;;;5.40;3.80;;;;;;;11.81;86.21;90645.63;4992690;28;20041;-85
2021/07/28 04:56:35;;;;;;;6.97;4.40;;;;;;;11.66;87.47;90647.16;4992371;28;20050;-86
2021/07/28 04:59:15;;;;;;;7.45;4.55;;;;;;;11.67;88.55;90649.44;4995951;28;20444;-86
2021/07/28 05:01:54;;;;;;;6.50;4.53;;;;;;;11.62;88.30;90667.94;5014672;28;20034;-88
2021/07/28 05:04:43;;;;;;;5.80;4.18;;;;;;;11.68;87.79;90665.84;5012349;28;20030;-86
2021/07/28 05:07:25;;;;;;;5.68;3.45;;;;;;;11.69;86.77;90690.84;4992470;28;20030;-88
2021/07/28 05:10:03;;;;;;;8.57;3.42;;;;;;;11.63;86.25;90676.56;4992052;28;20387;-89
2021/07/28 05:12:41;;;;;;;5.75;3.15;;;;;;;11.63;86.20;90673.94;4991979;28;20084;-88
2021/07/28 05:15:23;;;;;;;6.88;3.15;;;;;;;11.70;84.71;90674.09;4992395;28;20049;-88
2021/07/28 05:18:05;;;;;;;5.20;3.25;;;;;;;11.62;84.95;90656.75;4992118;28;20073;-89
2021/07/28 05:20:43;;;;;;;5.00;3.20;;;;;;;11.70;85.54;90658.44;4991945;28;20054;-88
2021/07/28 05:23:23;;;;;;;6.07;3.10;;;;;;;11.73;84.24;90676.78;4990894;28;20383;-89
2021/07/28 05:25:57;;;;;;;4.20;3.05;;;;;;;11.61;85.26;90669.06;4991953;28;20022;-89
2021/07/28 05:28:35;;;;;;;4.43;2.83;;;;;;;11.67;84.74;90670.31;4992001;28;20019;-88
2021/07/28 05:31:13;;;;;;;5.50;3.30;;;;;;;11.66;84.97;90663.59;4991583;28;20394;-88
2021/07/28 05:33:56;;;;;;;6.32;3.28;;;;;;;11.43;85.91;90671.25;4991961;28;20130;-89
2021/07/28 05:36:43;;;;;;;4.22;3.30;;;;;;;11.42;85.94;90667.16;4990680;28;20072;-88
2021/07/28 05:39:18;;;;;;;6.47;3.55;;;;;;;11.46;86.25;90678.41;4991758;28;20034;-87
2021/07/28 05:42:00;;;;;;;4.75;2.90;;;;;;;11.58;85.00;90682.03;4992067;28;20049;-88
2021/07/28 05:44:37;;;;;;;5.82;3.35;;;;;;;11.58;84.88;90669.72;4995910;28;20101;-88
2021/07/28 05:47:16;;;;;;;6.13;3.03;;;;;;;11.54;85.32;90670.75;4994828;28;20504;-88
2021/07/28 05:49:53;;;;;;;4.75;3.35;;;;;;;11.62;85.38;90683.59;4998916;28;20030;-86
2021/07/28 05:52:26;;;;;;;6.07;2.97;;;;;;;11.51;86.29;90674.78;4993812;28;20387;-89
2021/07/28 05:55:05;;;;;;;6.68;3.22;;;;;;;11.44;86.85;90680.59;4995496;28;20029;-88
2021/07/28 05:57:37;;;;;;;4.65;3.00;;;;;;;11.49;87.37;90677.75;4995873;28;20037;-89
2021/07/28 06:00:13;;;;;;;6.93;2.95;;;;;;;11.45;87.92;90670.94;4995527;28;20397;-89
2021/07/28 06:02:58;;;;;;;7.53;3.70;;;;;;;11.59;88.54;90670.47;4995680;28;20550;-88
2021/07/28 06:05:36;;;;;;;7.68;4.25;;;;;;;11.53;88.63;90690.13;4995725;28;20026;-90
2021/07/28 06:08:13;;;;;;;6.40;3.40;;;;;;;11.49;87.57;90701.22;4999546;28;20026;-88
2021/07/28 06:10:45;;;;;;;5.38;3.70;;;;;;;11.59;88.12;90704.41;4962227;28;20052;-88
2021/07/28 06:13:25;;;;;;;6.95;3.20;;;;;;;11.63;86.29;90700.06;4995682;28;20038;-89
2021/07/28 06:16:08;;;;;;;4.10;3.00;;;;;;;11.55;87.32;90698.34;4995462;28;20594;-89
2021/07/28 06:18:41;;;;;;;5.60;3.05;;;;;;;11.59;87.09;90707.03;4994221;28;20084;-89
2021/07/28 06:21:17;;;;;;;6.70;3.50;;;;;;;11.62;89.11;90698.50;4995024;28;20030;-89
2021/07/28 06:23:53;;;;;;;5.82;3.65;;;;;;;11.64;89.13;90696.34;4999055;28;20030;-89
2021/07/28 06:26:20;;;;;;;5.90;3.63;;;;;;;11.64;88.83;90696.34;4995055;28;20030;-90
2021/07/28 06:28:56;;;;;;;5.97;3.63;;;;;;;11.62;88.51;90698.50;4994972;28;20098;-90
2021/07/28 06:31:31;;;;;;;7.55;3.13;;;;;;;11.62;88.55;90704.50;4993578;28;20049;-89
2021/07/28 06:34:08;;;;;;;6.57;3.20;;;;;;;11.58;87.92;90697.69;4995172;28;20022;-90
2021/07/28 06:36:48;;;;;;;5.13;3.05;;;;;;;11.67;87.24;90706.09;4995096;28;20041;-89
2021/07/28 06:39:30;;;;;;;7.28;3.40;;;;;;;11.70;87.90;90711.41;4994918;28;20528;-89
2021/07/28 06:42:06;;;;;;;6.00;2.70;;;;;;;11.79;87.22;90713.81;4994968;28;20100;-89
2021/07/28 06:44:46;;;;;;;4.25;3.20;;;;;;;11.86;87.56;90713.25;4993927;28;20057;-89
2021/07/28 06:47:23;;;;;;;3.60;2.80;;;;;;;11.78;87.82;90712.31;4993427;28;20034;-89
2021/07/28 06:49:58;;;;;;;7.60;3.38;;;;;;;11.79;87.55;90716.44;4995332;28;20029;-89
2021/07/28 06:52:35;;;;;;;7.53;2.90;;;;;;;11.89;84.68;90707.34;4994099;28;20123;-90
2021/07/28 06:55:18;;;;;;;5.97;3.10;;;;;;;11.96;84.63;90705.66;4994746;28;20101;-89
2021/07/28 06:57:59;;;;;;;4.63;2.78;;;;;;;11.92;84.01;90702.22;5074552;23;20051;-86
2021/07/28 07:00:33;;;;;;;5.70;3.38;;;;;;;11.80;86.18;90699.69;5036288;28;20737;-86
2021/07/28 07:03:12;;;;;;;5.22;3.10;;;;;;;11.80;85.82;90712.75;5036474;28;20462;-86
2021/07/28 07:05:48;;;;;;;5.80;3.35;;;;;;;11.80;87.12;90712.75;5036358;28;20028;-90
2021/07/28 07:08:23;;;;;;;5.05;2.97;;;;;;;11.81;86.47;90714.25;5036272;28;20029;-87
2021/07/28 07:10:58;;;;;;;5.40;3.05;;;;;;;11.82;86.62;90718.38;5019993;28;20025;-86
2021/07/28 07:13:37;;;;;;;5.18;3.42;;;;;;;11.84;86.11;90715.47;5004256;28;20021;-86
2021/07/28 07:16:18;;;;;;;4.55;3.05;;;;;;;12.04;85.69;90737.13;5020708;28;20025;-86
2021/07/28 07:18:51;;;;;;;5.15;3.35;;;;;;;12.00;86.61;90733.69;5035516;28;20043;-87
2021/07/28 07:21:26;;;;;;;4.50;3.17;;;;;;;12.02;87.60;90741.97;5035915;28;20036;-87
2021/07/28 07:24:02;;;;;;;3.95;3.00;;;;;;;12.27;85.49;90742.50;5036737;28;20020;-86
2021/07/28 07:26:39;;;;;;;5.97;3.38;;;;;;;12.17;85.72;90728.84;5019827;28;20441;-87
2021/07/28 07:29:06;;;;;;;5.20;3.85;;;;;;;12.19;85.54;90725.88;5031882;28;20087;-86
2021/07/28 07:31:33;;;;;;;5.38;3.33;;;;;;;12.23;86.20;90734.56;5011050;28;20486;-87
2021/07/28 07:34:05;;;;;;;5.82;3.50;;;;;;;12.26;87.88;90730.50;5006322;28;20077;-86
2021/07/28 07:36:35;;;;;;;8.07;3.55;;;;;;;12.32;88.80;90727.28;5017628;28;20095;-86
2021/07/28 07:39:02;;;;;;;5.85;3.60;;;;;;;12.42;88.64;90733.84;5033986;28;20154;-86
2021/07/28 07:41:30;;;;;;;7.82;3.28;;;;;;;12.65;87.50;90731.31;5017978;28;20021;-86
2021/07/28 07:43:57;;;;;;;7.32;3.88;;;;;;;12.70;87.82;90728.41;5017404;28;20561;-87
2021/07/28 07:46:25;;;;;;;5.07;3.45;;;;;;;12.72;85.71;90726.22;5011471;28;20025;-87
2021/07/28 07:48:53;;;;;;;6.30;4.35;;;;;;;12.81;83.93;90723.38;4998002;28;20025;-87
2021/07/28 07:51:24;;;;;;;5.90;4.13;;;;;;;12.89;83.44;90732.84;4997906;28;20048;-86
2021/07/28 07:53:54;;;;;;;6.40;4.03;;;;;;;13.06;84.23;90734.28;4998928;28;20033;-87
2021/07/28 07:56:23;;;;;;;7.30;3.88;;;;;;;13.13;82.40;90744.88;4982819;28;20393;-87
2021/07/28 07:58:49;;;;;;;7.03;4.35;;;;;;;13.19;82.60;90740.88;5014157;28;20035;-87
2021/07/28 08:01:15;;;;;;;4.40;3.40;;;;;;;13.25;82.86;90757.06;5031027;28;20112;-87
2021/07/28 08:03:41;;;;;;;4.93;3.88;;;;;;;13.27;83.20;90742.53;4988525;28;20044;-86
2021/07/28 08:06:09;;;;;;;5.93;4.20;;;;;;;13.25;82.22;90742.16;5000166;28;20409;-87
2021/07/28 08:08:35;;;;;;;5.75;3.50;;;;;;;13.12;81.38;90735.53;5000659;28;20033;-87
2021/07/28 08:11:06;;;;;;;7.40;3.95;;;;;;;13.13;78.93;90739.66;5050720;28;20025;-88
2021/07/28 08:13:34;;;;;;;6.55;3.65;;;;;;;13.26;78.62;90742.91;5013064;28;20025;-86
2021/07/28 08:16:00;;;;;;;6.15;3.92;;;;;;;13.21;78.92;90741.28;5013128;28;20492;-87
2021/07/28 08:18:28;;;;;;;5.18;3.42;;;;;;;13.28;77.46;90730.22;5012895;28;20420;-86
2021/07/28 08:20:55;;;;;;;6.82;3.50;;;;;;;13.23;77.09;90728.63;5013116;28;20021;-86
2021/07/28 08:23:21;;;;;;;5.32;3.17;;;;;;;13.11;75.81;90731.41;5009381;28;20415;-88
2021/07/28 08:25:46;;;;;;;7.38;3.30;;;;;;;13.26;77.33;90729.81;5011645;28;20057;-86
2021/07/28 08:28:12;;;;;;;6.30;3.65;;;;;;;13.24;76.90;90740.63;5033065;28;20036;-85
2021/07/28 08:30:39;;;;;;;6.55;3.55;;;;;;;13.36;77.57;90734.47;5031982;28;20028;-88
2021/07/28 08:33:04;;;;;;;8.93;3.88;;;;;;;13.48;78.54;90728.31;5016416;28;20072;-86
2021/07/28 08:35:30;;;;;;;6.47;4.32;;;;;;;13.54;76.60;90727.66;5036580;28;20595;-87
2021/07/28 08:37:55;;;;;;;6.15;3.70;;;;;;;13.56;78.12;90735.91;5043536;28;20349;-87
2021/07/28 08:40:21;;;;;;;8.27;3.50;;;;;;;13.70;76.69;90732.00;5031289;28;20086;-87
2021/07/28 08:42:48;;;;;;;5.75;3.42;;;;;;;13.58;75.58;90732.97;5032071;28;20031;-86
2021/07/28 08:45:14;;;;;;;6.57;3.90;;;;;;;13.52;76.47;90727.25;5015582;28;20021;-86
2021/07/28 08:47:41;;;;;;;6.65;3.97;;;;;;;13.77;75.43;90717.16;5015589;28;20037;-86
2021/07/28 08:50:08;;;;;;;5.95;3.78;;;;;;;14.02;74.19;90714.16;4998914;28;20467;-86
2021/07/28 08:52:34;;;;;;;7.93;3.65;;;;;;;14.09;74.23;90719.50;5032059;28;20029;-87
2021/07/28 08:55:00;;;;;;;5.43;3.90;;;;;;;14.14;75.72;90721.81;5031809;28;20450;-86
2021/07/28 08:57:26;;;;;;;4.13;3.28;;;;;;;14.10;73.82;90726.25;4999049;28;20116;-86
2021/07/28 08:59:55;;;;;;;6.93;4.15;;;;;;;14.24;73.81;90731.69;5014852;28;20064;-88
2021/07/28 09:02:21;;;;;;;7.47;3.50;;;;;;;14.33;73.24;90720.94;5015454;28;20013;-86
2021/07/28 09:04:46;;;;;;;7.95;3.58;;;;;;;14.50;74.02;90732.78;5015249;28;20098;-86
2021/07/28 09:07:14;;;;;;;5.50;3.72;;;;;;;14.59;71.91;90735.88;5014940;28;20017;-86
2021/07/28 09:09:53;;;;;;;5.30;3.88;;;;;;;14.75;75.85;90736.47;5015051;28;20243;-86
2021/07/28 09:12:42;;;;;;;5.30;3.40;;;;;;;14.59;71.69;90741.13;5031633;28;20558;-87
2021/07/28 09:15:08;;;;;;;6.65;4.00;;;;;;;14.70;74.29;90736.00;5034891;28;20033;-86
2021/07/28 09:17:36;;;;;;;5.90;4.00;;;;;;;14.88;75.03;90741.50;5015102;28;20293;-86
2021/07/28 09:20:02;;;;;;;8.77;3.90;;;;;;;14.89;73.74;90745.63;4998872;28;20528;-86
2021/07/28 09:22:40;;;;;;;6.43;4.13;;;;;;;14.90;75.45;90734.75;5015713;28;20361;-86
2021/07/28 09:25:25;;;;;;;4.95;3.67;;;;;;;14.98;72.81;90736.38;5012983;28;20025;-86
2021/07/28 09:27:52;;;;;;;7.90;3.88;;;;;;;15.21;73.41;90749.34;4981632;28;20040;-86
2021/07/28 09:30:24;;;;;;;4.72;3.15;;;;;;;15.09;73.23;90744.34;4995306;28;20029;-87
2021/07/28 09:33:07;;;;;;;5.18;3.58;;;;;;;15.20;74.34;90758.34;4996001;28;20033;-87
2021/07/28 09:35:47;;;;;;;6.90;4.10;;;;;;;15.22;74.59;90763.22;4996032;28;20607;-85
2021/07/28 09:38:35;;;;;;;7.63;5.10;;;;;;;15.39;76.81;90767.13;5022480;28;20056;-86
2021/07/28 09:41:24;;;;;;;6.97;4.10;;;;;;;15.62;73.54;90775.63;5049056;28;20024;-86
2021/07/28 09:44:00;;;;;;;4.40;3.00;;;;;;;15.25;71.05;90754.63;5015707;28;20024;-86
2021/07/28 09:46:28;;;;;;;5.93;2.92;;;;;;;15.34;69.42;90772.72;5016595;28;20028;-87
2021/07/28 09:48:55;;;;;;;4.65;3.20;;;;;;;15.35;70.47;90774.22;5015365;28;20025;-86
2021/07/28 09:51:32;;;;;;;5.82;3.30;;;;;;;15.47;71.61;90776.59;5033384;28;20479;-85
2021/07/28 09:53:59;;;;;;;5.07;3.22;;;;;;;15.45;70.29;90768.34;5033925;28;20116;-85
2021/07/28 09:56:32;;;;;;;5.53;3.85;;;;;;;15.58;69.86;90753.81;5014995;28;20028;-86
2021/07/28 09:58:58;;;;;;;6.78;3.58;;;;;;;15.54;69.78;90760.91;5033644;28;20610;-86
2021/07/28 10:01:29;;;;;;;5.75;3.30;;;;;;;15.59;70.82;90754.59;5016531;28;20105;-86
2021/07/28 10:03:58;;;;;;;5.47;3.28;;;;;;;15.53;71.55;90765.41;5016973;28;20029;-85
2021/07/28 10:06:38;;;;;;;4.35;3.10;;;;;;;15.49;68.16;90774.38;5017410;28;20044;-84
2021/07/28 10:09:09;;;;;;;5.93;3.65;;;;;;;15.50;70.70;90770.63;5020407;28;20071;-85
2021/07/28 10:11:38;;;;;;;5.60;3.13;;;;;;;15.69;69.14;90765.22;5033539;28;20032;-85
2021/07/28 10:14:08;;;;;;;6.78;3.53;;;;;;;15.90;68.41;90762.00;5016144;28;20477;-85
2021/07/28 10:16:33;;;;;;;8.30;4.22;;;;;;;15.91;71.19;90768.00;5032136;28;20028;-85
2021/07/28 10:19:00;;;;;;;5.97;3.90;;;;;;;15.84;71.44;90754.81;4999765;28;20078;-86
2021/07/28 10:21:26;;;;;;;6.47;4.38;;;;;;;16.07;69.47;90752.72;5007912;28;20478;-86
2021/07/28 10:23:51;;;;;;;6.68;4.32;;;;;;;16.09;68.88;90760.25;4996255;28;20060;-86
2021/07/28 10:26:17;;;;;;;5.63;3.70;;;;;;;16.25;69.34;90771.25;5002663;28;20033;-86
2021/07/28 10:28:46;;;;;;;6.60;4.03;;;;;;;16.37;69.74;90763.06;5007768;28;20032;-85
2021/07/28 10:31:18;;;;;;;6.35;4.47;;;;;;;16.40;70.07;90772.88;5036365;28;20024;-86
2021/07/28 10:33:49;;;;;;;7.55;3.80;;;;;;;16.65;68.23;90774.88;5020257;28;20029;-87
2021/07/28 10:36:15;;;;;;;5.32;3.70;;;;;;;16.53;67.82;90757.53;5019601;28;20055;-84
2021/07/28 10:38:57;;;;;;;5.35;4.00;;;;;;;16.92;67.83;90756.97;5011054;28;20029;-85
2021/07/28 10:41:44;;;;;;;6.15;3.95;;;;;;;17.35;67.44;90754.47;4999110;28;20104;-87
2021/07/28 10:44:20;;;;;;;5.53;3.83;;;;;;;17.58;63.77;90762.06;5032563;28;20025;-87
2021/07/28 10:46:56;;;;;;;5.78;3.38;;;;;;;17.50;62.23;90753.41;5015184;28;20072;-87
2021/07/28 10:49:34;;;;;;;5.05;3.47;;;;;;;17.76;62.45;90762.13;5032862;28;20083;-86
2021/07/28 10:52:00;;;;;;;8.00;3.45;;;;;;;17.70;59.78;90756.44;5031762;28;20034;-86
2021/07/28 10:54:51;;;;;;;7.72;4.03;;;;;;;17.99;61.49;90759.88;4982319;28;20385;-86
2021/07/28 10:57:36;;;;;;;5.03;3.50;;;;;;;18.25;59.23;90750.06;5030781;28;20067;-85
2021/07/28 11:00:06;;;;;;;6.40;3.88;;;;;;;18.11;60.66;90756.84;5032047;28;20056;-87
2021/07/28 11:02:57;;;;;;;7.00;3.65;;;;;;;18.07;59.84;90766.66;5014540;28;20025;-86
2021/07/28 11:05:29;;;;;;;6.22;3.97;;;;;;;17.77;61.64;90758.34;5032038;28;20100;-87
2021/07/28 11:08:06;;;;;;;7.72;3.72;;;;;;;17.61;60.48;90771.88;4982384;28;20490;-86
2021/07/28 11:10:41;;;;;;;5.60;3.60;;;;;;;17.92;62.79;90784.34;5031793;28;20108;-86
2021/07/28 11:13:20;;;;;;;5.35;3.55;;;;;;;18.26;63.34;90772.66;4998505;28;20033;-87
2021/07/28 11:16:06;;;;;;;4.68;3.40;;;;;;;18.41;61.15;90768.91;4998738;28;20026;-85
2021/07/28 11:18:43;;;;;;;5.53;3.70;;;;;;;18.46;62.35;90768.50;5015435;28;20026;-87
2021/07/28 11:21:28;;;;;;;5.03;3.53;;;;;;;18.61;59.79;90769.97;4998856;28;20025;-84
2021/07/28 11:24:05;;;;;;;5.30;3.72;;;;;;;18.76;59.50;90778.66;5016792;28;20064;-87
2021/07/28 11:26:46;;;;;;;5.53;3.50;;;;;;;18.80;60.06;90762.81;5010513;28;20025;-87
2021/07/28 11:29:19;;;;;;;4.93;3.63;;;;;;;18.63;59.14;90774.91;5015085;28;20729;-85
2021/07/28 11:31:52;;;;;;;6.82;3.85;;;;;;;18.46;58.29;90770.41;5015251;28;20032;-87
2021/07/28 11:34:22;;;;;;;4.95;3.42;;;;;;;18.42;58.81;90765.13;5015093;28;20101;-88
2021/07/28 11:37:02;;;;;;;6.78;3.42;;;;;;;18.55;58.87;90760.97;5014821;28;20033;-88
2021/07/28 11:39:31;;;;;;;6.20;3.92;;;;;;;18.66;60.12;90770.72;4997687;28;20032;-87
2021/07/28 11:42:04;;;;;;;4.93;3.58;;;;;;;18.45;59.55;90780.19;5032371;28;20029;-88
2021/07/28 11:44:41;;;;;;;5.72;3.63;;;;;;;18.09;59.25;90785.50;4997581;28;20021;-86
2021/07/28 11:47:08;;;;;;;6.57;3.78;;;;;;;18.24;59.89;90780.97;4997653;28;20040;-87
2021/07/28 11:49:34;;;;;;;4.53;3.40;;;;;;;18.19;60.74;90783.22;5020793;28;20032;-86
2021/07/28 11:51:59;;;;;;;4.50;3.50;;;;;;;18.04;60.86;90785.13;5013167;28;20402;-87
2021/07/28 11:54:25;;;;;;;7.10;3.88;;;;;;;18.13;59.85;90775.69;5013272;28;20032;-86
2021/07/28 11:56:54;;;;;;;5.88;3.80;;;;;;;18.57;59.04;90782.44;5013240;28;20117;-87
2021/07/28 11:59:26;;;;;;;7.15;3.70;;;;;;;18.39;59.63;90784.34;5029703;28;20021;-86
2021/07/28 12:01:56;;;;;;;9.20;4.00;;;;;;;18.67;60.19;90785.44;5013047;28;20397;-86
2021/07/28 12:04:29;;;;;;;4.78;3.30;;;;;;;18.30;59.42;90791.88;5013310;28;20045;-86
2021/07/28 12:07:00;;;;;;;7.90;4.10;;;;;;;18.67;57.79;90785.44;5013623;28;20063;-86
2021/07/28 12:09:30;;;;;;;5.28;4.00;;;;;;;18.87;60.44;90773.38;4996787;28;20026;-87
2021/07/28 12:11:58;;;;;;;5.75;3.80;;;;;;;18.98;59.17;90784.63;5013013;28;20076;-87
2021/07/28 12:14:27;;;;;;;5.45;3.55;;;;;;;19.02;58.24;90772.16;5013827;28;20021;-88
2021/07/28 12:16:57;;;;;;;5.55;3.70;;;;;;;18.69;56.36;90772.59;5012490;28;20036;-86